createdAt,value
2019-05-07T00:02:32.718Z,1.51
2019-05-07T00:05:42.700Z,1.51
2019-05-07T00:08:49.286Z,1.53
2019-05-07T00:11:57.915Z,1.54
2019-05-07T00:15:06.579Z,1.73
2019-05-07T00:18:14.560Z,1.85
2019-05-07T00:21:23.358Z,1.90
2019-05-07T00:24:30.327Z,1.90
2019-05-07T00:27:42.775Z,2.02
2019-05-07T00:30:52.131Z,2.00
2019-05-07T00:33:59.416Z,1.99
2019-05-07T00:37:17.260Z,1.96
2019-05-07T00:40:33.050Z,2.00
2019-05-07T00:43:43.282Z,1.95
2019-05-07T00:46:52.515Z,2.12
2019-05-07T00:50:05.246Z,2.20
2019-05-07T00:53:13.277Z,2.25
2019-05-07T00:56:22.316Z,2.29
2019-05-07T00:59:32.230Z,2.44
2019-05-07T01:02:40.491Z,2.44
2019-05-07T01:05:49.001Z,2.58
2019-05-07T01:08:57.017Z,2.74
2019-05-07T01:12:05.246Z,2.86
2019-05-07T01:15:27.679Z,2.90
2019-05-07T01:18:23.587Z,3.03
2019-05-07T01:21:32.444Z,3.14
2019-05-07T01:24:42.954Z,3.14
2019-05-07T01:27:50.577Z,2.98
2019-05-07T01:30:58.688Z,3.14
2019-05-07T01:34:15.260Z,3.14
2019-05-07T01:37:24.271Z,3.32
2019-05-07T01:40:32.475Z,3.37
2019-05-07T01:43:39.602Z,3.28
2019-05-07T01:46:46.297Z,3.35
2019-05-07T01:49:55.111Z,3.44
2019-05-07T01:53:03.873Z,3.38
2019-05-07T01:56:12.506Z,3.48
2019-05-07T01:59:22.468Z,3.50
2019-05-07T02:02:43.284Z,3.50
2019-05-07T02:06:05.245Z,3.35
2019-05-07T02:09:25.672Z,3.55
2019-05-07T02:12:35.254Z,3.42
2019-05-07T02:15:57.380Z,3.62
2019-05-07T02:18:52.826Z,3.65
2019-05-07T02:22:02.759Z,3.69
2019-05-07T02:25:12.467Z,3.69
2019-05-07T02:28:22.287Z,3.69
2019-05-07T02:31:33.686Z,3.60
2019-05-07T02:34:44.210Z,3.54
2019-05-07T02:37:56.998Z,3.54
2019-05-07T02:41:14.187Z,3.77
2019-05-07T02:44:23.212Z,3.67
2019-05-07T02:47:33.140Z,3.63
2019-05-07T02:50:57.694Z,3.72
2019-05-07T02:54:23.773Z,3.72
2019-05-07T02:57:34.052Z,3.46
2019-05-07T03:00:43.084Z,3.43
2019-05-07T03:03:52.852Z,3.43
2019-05-07T03:07:03.646Z,3.71
2019-05-07T03:10:13.651Z,3.49
2019-05-07T03:13:23.434Z,3.51
2019-05-07T03:16:39.631Z,3.55
2019-05-07T03:19:43.017Z,3.59
2019-05-07T03:22:53.569Z,3.62
2019-05-07T03:26:07.274Z,3.34
2019-05-07T03:29:24.006Z,3.46
2019-05-07T03:32:38.756Z,3.54
2019-05-07T03:35:55.439Z,3.39
2019-05-07T03:38:59.517Z,3.47
2019-05-07T03:42:07.584Z,3.47
2019-05-07T03:45:42.983Z,3.06
2019-05-07T03:48:52.916Z,3.06
2019-05-07T03:52:00.055Z,3.08
2019-05-07T03:55:09.216Z,3.08
2019-05-07T03:58:17.723Z,3.29
2019-05-07T04:01:25.537Z,3.17
2019-05-07T04:04:33.524Z,3.31
2019-05-07T04:07:43.095Z,3.46
2019-05-07T04:10:53.833Z,3.46
2019-05-07T04:14:02.602Z,3.46
2019-05-07T04:17:17.339Z,3.26
2019-05-07T04:20:23.706Z,3.44
2019-05-07T04:23:33.745Z,3.59
2019-05-07T04:26:43.871Z,3.60
2019-05-07T04:29:53.233Z,3.76
2019-05-07T04:33:03.428Z,3.77
2019-05-07T04:36:39.535Z,3.92
2019-05-07T04:39:54.439Z,4.19
2019-05-07T04:43:02.793Z,4.10
2019-05-07T04:46:14.081Z,4.46
2019-05-07T04:49:23.593Z,4.48
2019-05-07T04:52:34.739Z,4.76
2019-05-07T04:55:43.186Z,4.89
2019-05-07T04:58:53.392Z,5.10
2019-05-07T05:02:13.565Z,5.10
2019-05-07T05:05:24.081Z,5.46
2019-05-07T05:08:32.710Z,5.66
2019-05-07T05:11:40.580Z,5.76
2019-05-07T05:14:48.642Z,5.57
2019-05-07T05:17:58.669Z,5.75
2019-05-07T05:21:26.729Z,5.53
2019-05-07T05:24:42.422Z,6.00
2019-05-07T05:27:52.414Z,6.65
2019-05-07T05:31:03.416Z,6.65
2019-05-07T05:34:13.072Z,6.28
2019-05-07T05:37:22.644Z,6.28
2019-05-07T05:40:32.003Z,7.16
2019-05-07T05:44:05.549Z,7.50
2019-05-07T05:47:13.573Z,7.81
2019-05-07T05:50:21.912Z,7.91
2019-05-07T05:53:38.641Z,7.91
2019-05-07T05:56:54.904Z,8.21
2019-05-07T06:00:26.399Z,7.53
2019-05-07T06:03:59.284Z,8.46
2019-05-07T06:07:26.222Z,8.23
2019-05-07T06:11:09.190Z,7.83
2019-05-07T06:14:45.338Z,7.95
2019-05-07T06:18:06.862Z,8.62
2019-05-07T06:21:33.914Z,8.53
2019-05-07T06:24:47.147Z,8.55
2019-05-07T06:27:55.251Z,8.36
2019-05-07T06:31:03.566Z,8.76
2019-05-07T06:34:12.455Z,8.09
2019-05-07T06:37:22.661Z,8.09
2019-05-07T06:40:58.463Z,8.22
2019-05-07T06:44:09.665Z,8.85
2019-05-07T06:47:17.557Z,9.97
2019-05-07T06:50:25.503Z,9.11
2019-05-07T06:53:34.892Z,9.11
2019-05-07T06:56:43.028Z,8.93
2019-05-07T06:59:54.644Z,8.17
2019-05-07T07:03:12.731Z,7.93
2019-05-07T07:06:25.430Z,8.00
2019-05-07T07:09:47.231Z,8.74
2019-05-07T07:12:55.623Z,9.28
2019-05-07T07:16:04.136Z,8.79
2019-05-07T07:19:12.714Z,8.79
2019-05-07T07:22:22.257Z,8.01
2019-05-07T07:25:32.515Z,8.34
2019-05-07T07:28:42.783Z,7.25
2019-05-07T07:31:59.270Z,7.72
2019-05-07T07:35:09.723Z,8.20
2019-05-07T07:38:34.159Z,8.12
2019-05-07T07:41:54.230Z,7.65
2019-05-07T07:45:16.256Z,7.98
2019-05-07T07:48:24.950Z,8.63
2019-05-07T07:51:41.095Z,9.46
2019-05-07T07:54:45.432Z,10.61
2019-05-07T07:58:04.471Z,9.57
2019-05-07T08:01:22.476Z,8.83
2019-05-07T08:04:32.035Z,9.40
2019-05-07T08:07:42.601Z,10.27
2019-05-07T08:10:49.445Z,11.03
2019-05-07T08:13:57.343Z,9.87
2019-05-07T08:17:07.702Z,9.47
2019-05-07T08:20:17.750Z,10.06
2019-05-07T08:23:25.569Z,9.77
2019-05-07T08:26:33.551Z,9.19
2019-05-07T08:29:43.033Z,9.90
2019-05-07T08:33:02.217Z,9.90
2019-05-07T08:36:14.735Z,10.29
2019-05-07T08:39:25.168Z,11.15
2019-05-07T08:42:33.526Z,11.20
2019-05-07T08:45:58.924Z,11.38
2019-05-07T08:49:08.247Z,11.38
2019-05-07T08:52:16.543Z,10.78
2019-05-07T08:55:24.520Z,10.80
2019-05-07T08:58:32.552Z,10.80
2019-05-07T09:05:46.436Z,11.08
2019-05-07T09:08:54.526Z,13.67
2019-05-07T09:12:03.150Z,13.49
2019-05-07T09:15:12.649Z,13.49
2019-05-07T09:18:22.814Z,11.28
2019-05-07T09:21:32.223Z,11.58
2019-05-07T09:24:39.606Z,11.43
2019-05-07T09:27:48.496Z,12.21
2019-05-07T09:31:06.241Z,13.17
2019-05-07T09:34:14.522Z,13.33
2019-05-07T09:37:26.475Z,13.75
2019-05-07T09:40:34.635Z,13.75
2019-05-07T09:43:42.526Z,13.08
2019-05-07T09:46:52.055Z,12.67
2019-05-07T09:50:05.496Z,12.67
2019-05-07T09:53:12.544Z,13.84
2019-05-07T09:56:22.464Z,13.77
2019-05-07T09:59:32.356Z,14.03
2019-05-07T10:06:36.425Z,14.69
2019-05-07T10:09:43.543Z,15.42
2019-05-07T10:13:18.827Z,17.09
2019-05-07T10:16:32.403Z,16.42
2019-05-07T10:19:41.741Z,14.10
2019-05-07T10:22:51.862Z,14.10
2019-05-07T10:26:01.666Z,11.73
2019-05-07T10:29:09.469Z,11.65
2019-05-07T10:32:17.659Z,11.40
2019-05-07T10:35:27.256Z,11.84
2019-05-07T10:38:35.588Z,11.74
2019-05-07T10:41:43.682Z,10.69
2019-05-07T10:45:13.040Z,10.69
2019-05-07T10:48:39.747Z,11.49
2019-05-07T10:51:47.642Z,10.76
2019-05-07T10:54:59.766Z,11.34
2019-05-07T10:58:05.548Z,12.02
2019-05-07T11:01:16.356Z,11.65
2019-05-07T11:04:39.052Z,11.65
2019-05-07T11:07:35.556Z,12.95
2019-05-07T11:10:43.601Z,13.07
2019-05-07T11:13:55.522Z,12.65
2019-05-07T11:21:34.297Z,13.14
2019-05-07T11:24:42.689Z,12.94
2019-05-07T11:27:52.411Z,13.22
2019-05-07T11:31:02.076Z,13.19
2019-05-07T11:34:11.923Z,13.57
2019-05-07T11:37:22.467Z,13.57
2019-05-07T11:40:34.467Z,13.94
2019-05-07T11:43:58.147Z,14.16
2019-05-07T11:47:22.375Z,13.59
2019-05-07T11:51:01.365Z,14.33
2019-05-07T11:54:12.833Z,14.64
2019-05-07T11:57:22.150Z,14.02
2019-05-07T12:00:38.064Z,12.74
2019-05-07T12:03:46.114Z,11.72
2019-05-07T12:06:54.614Z,12.22
2019-05-07T12:10:04.862Z,10.82
2019-05-07T12:13:12.917Z,11.99
2019-05-07T12:16:22.341Z,11.40
2019-05-07T12:19:30.508Z,14.11
2019-05-07T12:22:48.262Z,12.38
2019-05-07T12:25:56.855Z,12.38
2019-05-07T12:29:05.140Z,12.32
2019-05-07T12:32:48.007Z,11.18
2019-05-07T12:35:56.266Z,10.92
2019-05-07T12:39:07.684Z,11.30
2019-05-07T12:42:15.437Z,11.03
2019-05-07T12:45:23.454Z,11.00
2019-05-07T12:48:30.303Z,11.18
2019-05-07T12:51:56.746Z,11.32
2019-05-07T12:55:13.564Z,11.87
2019-05-07T12:58:21.872Z,11.17
2019-05-07T13:01:48.764Z,11.17
2019-05-07T13:04:58.093Z,12.65
2019-05-07T13:08:06.657Z,12.53
2019-05-07T13:11:15.052Z,11.85
2019-05-07T13:17:46.595Z,11.11
2019-05-07T13:20:54.845Z,11.19
2019-05-07T13:24:02.835Z,11.19
2019-05-07T13:27:11.261Z,10.81
2019-05-07T13:30:22.181Z,10.58
2019-05-07T13:33:31.651Z,10.40
2019-05-07T13:36:44.242Z,9.95
2019-05-07T13:40:17.226Z,10.18
2019-05-07T13:43:30.907Z,10.03
2019-05-07T13:46:42.122Z,10.74
2019-05-07T13:49:53.566Z,10.59
2019-05-07T13:53:01.765Z,11.72
2019-05-07T13:56:12.684Z,11.72
2019-05-07T13:59:22.270Z,11.10
2019-05-07T14:02:32.697Z,11.30
2019-05-07T14:05:42.534Z,11.09
2019-05-07T14:08:51.704Z,10.78
2019-05-07T14:12:01.896Z,10.74
2019-05-07T14:15:09.539Z,11.02
2019-05-07T14:18:19.267Z,10.72
2019-05-07T14:21:27.239Z,11.28
2019-05-07T14:24:36.586Z,11.56
2019-05-07T14:27:44.608Z,11.06
2019-05-07T14:30:53.264Z,11.45
2019-05-07T14:34:12.484Z,11.45
2019-05-07T14:37:32.494Z,11.04
2019-05-07T14:40:42.697Z,10.89
2019-05-07T14:44:01.242Z,10.98
2019-05-07T14:47:10.401Z,11.54
2019-05-07T14:50:22.426Z,11.64
2019-05-07T14:53:30.237Z,11.75
2019-05-07T14:56:39.236Z,11.24
2019-05-07T14:59:48.430Z,11.88
2019-05-07T15:02:56.531Z,11.26
2019-05-07T15:06:04.540Z,10.63
2019-05-07T15:09:12.644Z,10.97
2019-05-07T15:12:20.538Z,10.97
2019-05-07T15:15:28.563Z,10.98
2019-05-07T15:18:52.952Z,11.49
2019-05-07T15:22:20.274Z,11.49
2019-05-07T15:25:31.993Z,11.21
2019-05-07T15:28:41.908Z,11.09
2019-05-07T15:32:08.034Z,10.94
2019-05-07T15:35:16.263Z,11.22
2019-05-07T15:38:24.517Z,10.88
2019-05-07T15:41:32.681Z,11.19
2019-05-07T15:44:43.223Z,11.64
2019-05-07T15:47:53.249Z,11.52
2019-05-07T15:51:01.908Z,11.10
2019-05-07T15:54:12.647Z,10.97
2019-05-07T15:57:25.396Z,10.66
2019-05-07T16:00:33.587Z,10.06
2019-05-07T16:03:45.701Z,10.25
2019-05-07T16:06:54.704Z,9.97
2019-05-07T16:10:04.538Z,10.33
2019-05-07T16:13:14.252Z,10.48
2019-05-07T16:16:23.610Z,10.48
2019-05-07T16:19:32.215Z,10.05
2019-05-07T16:22:43.255Z,10.14
2019-05-07T16:25:52.807Z,10.32
2019-05-07T16:29:04.717Z,9.91
2019-05-07T16:32:13.562Z,9.64
2019-05-07T16:35:24.441Z,10.37
2019-05-07T16:38:34.531Z,10.37
2019-05-07T16:41:44.060Z,10.38
2019-05-07T16:44:52.395Z,10.38
2019-05-07T16:48:03.183Z,9.88
2019-05-07T16:51:12.798Z,10.08
2019-05-07T16:54:21.403Z,10.22
2019-05-07T16:57:38.378Z,10.48
2019-05-07T17:00:52.281Z,10.15
2019-05-07T17:04:03.671Z,10.15
2019-05-07T17:07:13.891Z,10.41
2019-05-07T17:10:26.428Z,10.46
2019-05-07T17:13:37.371Z,10.42
2019-05-07T17:16:51.628Z,10.37
2019-05-07T17:20:02.138Z,10.32
2019-05-07T17:23:11.942Z,10.23
2019-05-07T17:26:23.033Z,10.23
2019-05-07T17:29:32.065Z,10.09
2019-05-07T17:32:41.976Z,10.09
2019-05-07T17:35:51.746Z,9.95
2019-05-07T17:39:04.310Z,9.83
2019-05-07T17:42:17.439Z,9.78
2019-05-07T17:45:26.537Z,9.64
2019-05-07T17:48:36.443Z,9.41
2019-05-07T17:51:45.075Z,9.41
2019-05-07T17:54:53.155Z,9.52
2019-05-07T17:58:01.992Z,9.47
2019-05-07T18:01:11.098Z,9.40
2019-05-07T18:04:19.646Z,9.23
2019-05-07T18:07:28.104Z,9.27
2019-05-07T18:10:38.591Z,9.12
2019-05-07T18:13:47.127Z,9.09
2019-05-07T18:17:14.265Z,9.09
2019-05-07T18:20:22.393Z,9.01
2019-05-07T18:23:32.133Z,8.96
2019-05-07T18:26:42.182Z,8.77
2019-05-07T18:29:52.089Z,8.77
2019-05-07T18:33:18.916Z,8.70
2019-05-07T18:36:31.646Z,8.63
2019-05-07T18:39:42.639Z,8.58
2019-05-07T18:42:54.053Z,8.38
2019-05-07T18:46:02.854Z,8.30
2019-05-07T18:49:14.048Z,8.33
2019-05-07T18:52:24.582Z,8.20
2019-05-07T18:55:33.090Z,8.08
2019-05-07T18:58:42.628Z,8.08
2019-05-07T19:01:54.498Z,7.94
2019-05-07T19:05:05.659Z,7.83
2019-05-07T19:08:14.251Z,7.60
2019-05-07T19:11:22.986Z,7.60
2019-05-07T19:14:33.631Z,7.37
2019-05-07T19:17:44.449Z,7.36
2019-05-07T19:20:53.006Z,7.36
2019-05-07T19:24:02.310Z,7.26
2019-05-07T19:27:09.567Z,7.10
2019-05-07T19:30:18.467Z,7.07
2019-05-07T19:33:28.563Z,7.09
2019-05-07T19:36:36.769Z,6.81
2019-05-07T19:39:46.747Z,6.81
2019-05-07T19:42:56.247Z,6.68
2019-05-07T19:46:04.555Z,6.71
2019-05-07T19:49:13.258Z,6.67
2019-05-07T19:52:23.190Z,6.67
2019-05-07T19:55:52.188Z,6.65
2019-05-07T19:59:03.632Z,6.51
2019-05-07T20:02:16.421Z,6.30
2019-05-07T20:05:23.463Z,6.30
2019-05-07T20:08:32.467Z,6.34
2019-05-07T20:11:48.935Z,6.09
2019-05-07T20:14:57.429Z,6.14
2019-05-07T20:18:04.510Z,6.08
2019-05-07T20:21:17.370Z,6.06
2019-05-07T20:24:25.589Z,5.70
2019-05-07T20:27:33.528Z,5.70
2019-05-07T20:30:41.918Z,5.68
2019-05-07T20:33:52.846Z,5.68
2019-05-07T20:37:02.063Z,5.58
2019-05-07T20:40:12.184Z,5.56
2019-05-07T20:43:20.551Z,5.48
2019-05-07T20:46:29.262Z,5.25
2019-05-07T20:49:38.515Z,5.25
2019-05-07T20:52:46.564Z,5.27
2019-05-07T20:56:02.226Z,5.27
2019-05-07T20:59:12.503Z,5.21
2019-05-07T21:02:22.534Z,5.02
2019-05-07T21:05:32.419Z,4.91
2019-05-07T21:08:42.648Z,4.90
2019-05-07T21:11:52.380Z,4.80
2019-05-07T21:15:00.577Z,4.73
2019-05-07T21:18:09.276Z,4.64
2019-05-07T21:21:17.527Z,4.64
2019-05-07T21:24:25.591Z,4.63
2019-05-07T21:27:33.765Z,4.52
2019-05-07T21:30:42.796Z,4.52
2019-05-07T21:33:52.351Z,4.52
2019-05-07T21:37:00.572Z,3.98
2019-05-07T21:40:08.765Z,3.74
2019-05-07T21:43:17.017Z,3.74
2019-05-07T21:46:25.261Z,3.74
2019-05-07T21:49:33.546Z,3.65
2019-05-07T21:52:44.250Z,3.21
2019-05-07T21:56:12.346Z,3.21
2019-05-07T21:59:22.918Z,3.06
2019-05-07T22:02:32.757Z,2.94
2019-05-07T22:05:44.044Z,2.94
2019-05-07T22:08:52.523Z,2.79
2019-05-07T22:12:03.541Z,2.68
2019-05-07T22:15:13.255Z,2.58
2019-05-07T22:18:22.650Z,2.58
2019-05-07T22:21:33.978Z,2.47
2019-05-07T22:24:42.542Z,2.28
2019-05-07T22:27:52.855Z,2.09
2019-05-07T22:31:27.368Z,2.09
2019-05-07T22:34:52.050Z,2.10
2019-05-07T22:38:03.760Z,1.94
2019-05-07T22:41:12.928Z,1.83
2019-05-07T22:44:25.461Z,1.65
2019-05-07T22:47:32.494Z,1.65
2019-05-07T22:50:39.663Z,1.56
2019-05-07T22:53:47.666Z,1.33
2019-05-07T22:57:14.303Z,1.33
2019-05-07T23:00:32.133Z,1.39
2019-05-07T23:03:42.860Z,1.45
2019-05-07T23:06:52.668Z,1.48
2019-05-07T23:10:02.377Z,1.48
2019-05-07T23:13:10.007Z,1.51
2019-05-07T23:16:17.920Z,1.59
2019-05-07T23:19:26.094Z,1.65
2019-05-07T23:22:34.282Z,1.64
2019-05-07T23:25:43.191Z,1.67
2019-05-07T23:28:52.511Z,1.63
2019-05-07T23:32:01.924Z,1.63
2019-05-07T23:35:12.560Z,1.61
2019-05-07T23:38:22.387Z,1.53
2019-05-07T23:41:36.517Z,1.46
2019-05-07T23:44:44.482Z,1.14
2019-05-07T23:47:51.915Z,1.14
2019-05-07T23:51:02.058Z,1.18
2019-05-07T23:54:11.951Z,1.08
2019-05-07T23:57:18.459Z,0.98
